createdAt,value
2017-11-24T00:00:46.986Z,66.43
2017-11-24T00:03:15.679Z,66.37
2017-11-24T00:05:44.253Z,64.07
2017-11-24T00:08:12.192Z,70.70
2017-11-24T00:10:40.143Z,65.20
2017-11-24T00:13:07.991Z,66.90
2017-11-24T00:15:35.936Z,71.77
2017-11-24T00:18:03.907Z,65.53
2017-11-24T00:20:31.740Z,64.67
2017-11-24T00:23:00.400Z,66.30
2017-11-24T00:25:28.284Z,67.23
2017-11-24T00:27:56.117Z,62.63
2017-11-24T00:30:24.061Z,63.60
2017-11-24T00:32:51.946Z,67.70
2017-11-24T00:35:20.530Z,66.27
2017-11-24T00:37:48.423Z,62.87
2017-11-24T00:40:16.278Z,63.00
2017-11-24T00:42:45.018Z,68.37
2017-11-24T00:45:12.866Z,64.67
2017-11-24T00:47:40.773Z,60.47
2017-11-24T00:50:08.646Z,61.17
2017-11-24T00:52:36.623Z,62.17
2017-11-24T00:55:04.510Z,63.23
2017-11-24T00:57:32.475Z,63.93
2017-11-24T01:00:11.249Z,59.53
2017-11-24T01:02:39.208Z,61.87
2017-11-24T01:05:07.048Z,57.47
2017-11-24T01:07:35.000Z,57.23
2017-11-24T01:12:36.871Z,55.33
2017-11-24T01:15:05.495Z,55.30
2017-11-24T01:17:33.353Z,54.30
2017-11-24T01:20:01.233Z,54.70
2017-11-24T01:22:29.080Z,52.80
2017-11-24T01:24:57.753Z,53.00
2017-11-24T01:27:26.646Z,50.23
2017-11-24T01:29:54.562Z,51.30
2017-11-24T01:32:22.454Z,54.87
2017-11-24T01:34:50.414Z,52.87
2017-11-24T01:37:18.255Z,51.23
2017-11-24T01:39:46.119Z,50.73
2017-11-24T01:42:13.972Z,46.97
2017-11-24T01:44:41.860Z,50.87
2017-11-24T01:47:09.646Z,46.70
2017-11-24T01:49:37.637Z,43.87
2017-11-24T01:52:05.534Z,43.30
2017-11-24T01:54:33.459Z,46.87
2017-11-24T01:57:01.339Z,41.67
2017-11-24T01:59:29.285Z,45.43
2017-11-24T02:01:57.197Z,43.80
2017-11-24T02:04:25.108Z,43.40
2017-11-24T02:06:53.676Z,45.77
2017-11-24T02:09:21.552Z,47.03
2017-11-24T02:11:49.461Z,45.63
2017-11-24T02:14:18.254Z,43.83
2017-11-24T02:16:46.076Z,39.67
2017-11-24T02:19:13.926Z,41.27
2017-11-24T02:21:41.768Z,35.30
2017-11-24T02:24:09.758Z,32.63
2017-11-24T02:26:38.671Z,33.13
2017-11-24T02:29:06.676Z,32.50
2017-11-24T02:31:34.533Z,30.53
2017-11-24T02:34:03.223Z,31.50
2017-11-24T02:36:31.934Z,34.47
2017-11-24T02:38:59.836Z,33.93
2017-11-24T02:41:27.816Z,33.50
2017-11-24T02:43:55.752Z,31.90
2017-11-24T02:46:23.621Z,30.27
2017-11-24T02:48:51.465Z,31.63
2017-11-24T02:51:19.410Z,30.67
2017-11-24T02:53:48.020Z,30.23
2017-11-24T02:56:15.885Z,30.80
2017-11-24T02:58:44.606Z,32.00
2017-11-24T03:01:12.484Z,31.97
2017-11-24T03:03:40.308Z,30.50
2017-11-24T03:06:09.013Z,30.20
2017-11-24T03:08:36.946Z,30.10
2017-11-24T03:11:05.597Z,29.43
2017-11-24T03:13:33.440Z,30.73
2017-11-24T03:16:01.347Z,29.30
2017-11-24T03:18:29.273Z,26.67
2017-11-24T03:20:57.184Z,29.70
2017-11-24T03:23:25.060Z,29.70
2017-11-24T03:25:52.947Z,29.93
2017-11-24T03:28:20.827Z,29.23
2017-11-24T03:30:49.423Z,31.50
2017-11-24T03:33:18.108Z,28.30
2017-11-24T03:35:46.005Z,29.50
2017-11-24T03:38:14.568Z,30.47
2017-11-24T03:40:42.388Z,28.27
2017-11-24T03:43:10.991Z,29.57
2017-11-24T03:45:39.119Z,31.07
2017-11-24T03:48:07.017Z,28.37
2017-11-24T03:50:34.915Z,33.63
2017-11-24T03:53:02.856Z,29.80
2017-11-24T03:55:30.795Z,29.13
2017-11-24T03:57:58.686Z,29.33
2017-11-24T04:00:26.554Z,30.00
2017-11-24T04:02:54.452Z,30.77
2017-11-24T04:05:22.399Z,28.63
2017-11-24T04:07:50.265Z,28.50
2017-11-24T04:10:18.145Z,29.40
2017-11-24T04:12:46.024Z,26.53
2017-11-24T04:15:13.907Z,27.20
2017-11-24T04:17:41.896Z,28.50
2017-11-24T04:20:09.851Z,28.70
2017-11-24T04:22:37.786Z,28.70
2017-11-24T04:25:05.628Z,28.47
2017-11-24T04:27:34.261Z,28.57
2017-11-24T04:30:02.182Z,27.87
2017-11-24T04:32:30.138Z,26.60
2017-11-24T04:34:57.992Z,29.40
2017-11-24T04:37:25.924Z,27.27
2017-11-24T04:39:53.771Z,26.47
2017-11-24T04:42:22.421Z,27.93
2017-11-24T04:44:50.372Z,26.70
2017-11-24T04:47:18.275Z,27.30
2017-11-24T04:49:47.491Z,29.37
2017-11-24T04:52:15.386Z,28.20
2017-11-24T04:54:43.420Z,28.23
2017-11-24T04:57:12.954Z,26.43
2017-11-24T04:59:40.827Z,26.90
2017-11-24T05:02:09.004Z,25.83
2017-11-24T05:04:36.890Z,27.77
2017-11-24T05:07:04.721Z,27.30
2017-11-24T05:09:33.362Z,26.60
2017-11-24T05:12:01.321Z,27.47
2017-11-24T05:14:29.238Z,26.00
2017-11-24T05:16:57.888Z,26.33
2017-11-24T05:19:25.807Z,26.67
2017-11-24T05:21:53.625Z,25.40
2017-11-24T05:24:22.308Z,25.10
2017-11-24T05:26:50.172Z,25.77
2017-11-24T05:29:18.278Z,23.60
2017-11-24T05:31:56.381Z,23.23
2017-11-24T05:34:27.957Z,24.07
2017-11-24T05:39:54.408Z,25.13
2017-11-24T05:42:36.222Z,25.17
2017-11-24T05:48:59.405Z,21.90
2017-11-24T05:51:37.385Z,22.83
2017-11-24T05:54:05.254Z,22.67
2017-11-24T05:56:33.910Z,21.63
2017-11-24T05:59:01.842Z,22.73
2017-11-24T06:01:29.895Z,21.00
2017-11-24T06:03:57.898Z,19.90
2017-11-24T06:06:27.269Z,20.10
2017-11-24T06:08:57.249Z,21.13
2017-11-24T06:25:08.567Z,20.73
2017-11-24T06:27:38.448Z,20.30
2017-11-24T06:30:11.267Z,19.03
2017-11-24T06:32:40.695Z,19.00
2017-11-24T06:45:48.087Z,20.20
2017-11-24T06:48:18.300Z,19.77
2017-11-24T06:50:50.172Z,21.07
2017-11-24T06:53:18.169Z,21.43
2017-11-24T06:55:55.426Z,21.23
2017-11-24T06:58:23.317Z,19.23
2017-11-24T07:00:51.939Z,23.23
2017-11-24T07:03:19.830Z,23.17
2017-11-24T07:05:47.715Z,21.50
2017-11-24T07:08:15.550Z,24.37
2017-11-24T07:10:43.412Z,28.60
2017-11-24T07:13:11.375Z,22.00
2017-11-24T07:15:39.265Z,23.23
2017-11-24T07:18:07.045Z,25.23
2017-11-24T07:20:34.944Z,24.27
2017-11-24T07:23:03.701Z,20.13
2017-11-24T07:25:31.644Z,19.87
2017-11-24T07:27:59.500Z,21.27
2017-11-24T07:30:27.294Z,26.17
2017-11-24T07:32:55.210Z,29.80
2017-11-24T09:48:25.518Z,29.27
2017-11-24T10:04:59.716Z,29.03
2017-11-24T10:07:27.722Z,29.53
2017-11-24T10:09:55.596Z,30.27
2017-11-24T10:12:23.422Z,28.90
2017-11-24T10:14:51.333Z,30.90
2017-11-24T10:40:29.175Z,38.93
2017-11-24T10:42:57.315Z,37.77
2017-11-24T10:52:22.128Z,38.47
2017-11-24T10:54:50.042Z,38.43
2017-11-24T10:57:17.948Z,39.00
2017-11-24T10:59:45.899Z,43.70
2017-11-24T11:02:13.776Z,39.10
2017-11-24T11:04:41.659Z,42.00
2017-11-24T11:07:09.576Z,43.70
2017-11-24T11:12:59.086Z,41.87
2017-11-24T11:15:34.769Z,42.23
2017-11-24T11:18:02.886Z,42.83
2017-11-24T11:20:31.134Z,42.33
2017-11-24T11:22:59.037Z,43.17
2017-11-24T11:25:26.951Z,44.50
2017-11-24T11:27:55.678Z,44.30
2017-11-24T11:30:23.710Z,47.53
2017-11-24T11:32:51.857Z,45.50
2017-11-24T11:35:19.765Z,45.83
2017-11-24T11:41:30.133Z,43.17
2017-11-24T11:43:58.238Z,47.50
2017-11-24T12:10:41.237Z,50.47
2017-11-24T12:13:09.146Z,50.57
2017-11-24T12:15:37.790Z,52.63
2017-11-24T12:18:05.789Z,52.83
2017-11-24T12:20:33.614Z,52.47
2017-11-24T12:23:01.510Z,56.83
2017-11-24T12:25:29.441Z,51.43
2017-11-24T12:27:57.480Z,51.03
2017-11-24T12:30:25.432Z,44.00
2017-11-24T12:32:53.424Z,51.30
2017-11-24T12:35:21.322Z,50.60
2017-11-24T12:37:49.162Z,48.87
2017-11-24T12:40:17.161Z,50.60
2017-11-24T12:42:45.765Z,51.17
2017-11-24T12:45:13.723Z,54.07
2017-11-24T12:47:41.626Z,52.97
2017-11-24T12:50:10.196Z,53.87
2017-11-24T12:52:38.096Z,52.87
2017-11-24T12:55:05.992Z,57.10
2017-11-24T12:57:33.876Z,54.27
2017-11-24T13:00:11.388Z,54.73
2017-11-24T13:02:39.258Z,57.63
2017-11-24T13:05:07.371Z,57.90
2017-11-24T13:07:35.307Z,60.93
2017-11-24T13:10:03.252Z,51.43
2017-11-24T13:12:31.924Z,56.93
2017-11-24T13:15:01.123Z,60.37
2017-11-24T13:17:29.104Z,59.53
2017-11-24T13:19:56.967Z,60.43
2017-11-24T13:22:24.795Z,62.73
2017-11-24T13:24:53.000Z,63.73
2017-11-24T13:27:20.861Z,61.70
2017-11-24T13:29:50.358Z,63.07
2017-11-24T13:32:18.169Z,60.30
2017-11-24T13:34:46.073Z,62.60
2017-11-24T13:37:13.961Z,64.90
2017-11-24T13:39:41.816Z,65.90
2017-11-24T13:42:09.762Z,69.83
2017-11-24T13:44:40.107Z,67.23
2017-11-24T13:47:13.674Z,64.87
2017-11-24T13:49:46.626Z,69.43
2017-11-24T13:52:14.697Z,76.80
2017-11-24T13:54:43.478Z,74.80
2017-11-24T13:57:11.415Z,76.87
2017-11-24T13:59:39.982Z,77.67
2017-11-24T14:02:07.897Z,80.67
2017-11-24T14:04:40.372Z,82.63
2017-11-24T14:07:08.473Z,85.20
2017-11-24T14:34:14.395Z,93.73
2017-11-24T14:43:44.673Z,86.80
2017-11-24T14:53:14.369Z,87.33
2017-11-24T15:02:38.469Z,86.50
2017-11-24T15:05:06.582Z,86.20
2017-11-24T15:11:35.578Z,86.10
2017-11-24T15:14:07.719Z,92.20
2017-11-24T15:16:35.506Z,95.27
2017-11-24T15:19:03.343Z,93.80
2017-11-24T15:21:31.866Z,98.27
2017-11-24T15:23:59.773Z,94.47
2017-11-24T15:26:27.628Z,96.60
2017-11-24T15:28:56.017Z,93.83
2017-11-24T15:31:23.906Z,94.13
2017-11-24T15:33:51.903Z,99.83
2017-11-24T15:36:25.378Z,99.40
2017-11-24T15:38:53.342Z,96.83
2017-11-24T15:41:21.186Z,100.07
2017-11-24T15:43:49.022Z,105.30
2017-11-24T15:46:16.818Z,98.90
2017-11-24T15:48:45.625Z,98.40
2017-11-24T15:51:13.592Z,105.60
2017-11-24T15:53:43.606Z,102.77
2017-11-24T15:56:11.452Z,101.17
2017-11-24T15:58:39.288Z,100.37
2017-11-24T16:01:07.951Z,100.80
2017-11-24T16:03:35.762Z,104.77
2017-11-24T16:06:03.669Z,102.40
2017-11-24T16:08:32.254Z,101.97
2017-11-24T16:11:00.087Z,103.33
2017-11-24T16:13:27.857Z,99.03
2017-11-24T16:15:55.767Z,100.23
2017-11-24T16:18:23.615Z,100.67
2017-11-24T16:20:51.438Z,101.10
2017-11-24T16:23:19.180Z,106.30
2017-11-24T16:25:47.020Z,104.30
2017-11-24T16:28:14.878Z,107.00
2017-11-24T16:30:42.691Z,102.93
2017-11-24T16:33:10.526Z,107.90
2017-11-24T16:35:38.347Z,99.37
2017-11-24T16:38:06.220Z,103.57
2017-11-24T16:40:37.637Z,102.67
2017-11-24T16:56:41.573Z,101.20
2017-11-24T17:09:39.995Z,104.10
2017-11-24T17:18:53.333Z,98.57
2017-11-24T17:21:23.049Z,99.73
2017-11-24T17:23:52.051Z,101.00
2017-11-24T17:29:54.348Z,104.60
2017-11-24T17:32:37.652Z,101.10
2017-11-24T17:38:38.366Z,100.30
2017-11-24T17:51:25.492Z,102.47
2017-11-24T17:53:53.310Z,105.77
2017-11-24T20:01:57.187Z,109.63
2017-11-24T20:04:49.650Z,109.20
2017-11-24T20:13:52.222Z,107.20
2017-11-24T20:16:21.788Z,106.30
2017-11-24T20:19:10.641Z,111.33
2017-11-24T23:03:18.348Z,101.13
2017-11-24T23:05:48.234Z,99.63
2017-11-24T23:08:24.832Z,101.40
2017-11-24T23:25:05.260Z,100.70
2017-11-24T23:44:53.306Z,91.00
2017-11-24T23:47:29.391Z,95.60
2017-11-24T23:50:15.900Z,95.40
2017-11-24T23:59:33.417Z,90.47
